Great Village, Canada
Current Conditions -  °F | °C
As of 2:00 PM on Monday 20 Oct 2014 (Local Time) from CYHZ Reporting Station
Broken Clouds Broken Clouds  
Wind Chill: 36°   Ceiling: 3500
Heat Index: 45°   Visibility: 15mi
Dew Point: 30°   Wind: 24mph
Humidity: 57%   Direction: 280°W
Pressure: 29.79"   Gusts: 35mph
Location:  45.42°N, 63.6°W
Report Text: CYHZ 201700Z 28021G30KT 15SM BKN035 07/M01 A2979 RMK SC6 SLP092
Loading
Personal Weather Stations






























Interactive Weather Map
Tropical Storm Tracking
New forecast layout! Learn more

10-Day Weather Forecast

Advertisements
Track Severe Weather on mobile